createdAt,value
2023-05-16T00:10:02.265Z,11.77
2023-05-16T00:24:58.380Z,11.59
2023-05-16T00:39:54.387Z,11.48
2023-05-16T00:54:50.498Z,11.04
2023-05-16T01:09:46.972Z,11.17
2023-05-16T01:24:43.337Z,10.73
2023-05-16T02:24:27.007Z,11.02
2023-05-16T02:39:23.252Z,10.88
2023-05-16T02:54:19.837Z,10.77
2023-05-16T03:09:15.597Z,10.51
2023-05-16T03:39:07.363Z,9.62
2023-05-16T03:54:03.521Z,9.56
2023-05-16T04:08:59.937Z,9.53
2023-05-16T04:38:52.312Z,9.22
2023-05-16T04:53:48.778Z,9.03
2023-05-16T05:08:45.015Z,9.15
2023-05-16T05:23:41.679Z,8.94
2023-05-16T05:38:37.538Z,8.76
2023-05-16T05:53:33.645Z,8.43
2023-05-16T06:08:30.134Z,8.55
2023-05-16T06:23:26.248Z,8.64
2023-05-16T06:38:22.511Z,8.82
2023-05-16T06:53:18.679Z,8.84
2023-05-16T07:08:14.880Z,9.57
2023-05-16T07:23:11.859Z,9.1
2023-05-16T07:38:07.973Z,11.07
2023-05-16T07:53:04.605Z,9.59
2023-05-16T08:08:00.502Z,10.47
2023-05-16T08:22:57.563Z,11.01
2023-05-16T08:37:54.457Z,11.37
2023-05-16T08:52:50.715Z,11.13
2023-05-16T09:07:47.351Z,13.27
2023-05-16T09:22:44.173Z,14.53
2023-05-16T09:37:41.786Z,13.86
2023-05-16T09:52:38.326Z,14.78
2023-05-16T10:07:35.039Z,14.81
2023-05-16T10:22:31.718Z,14.16
2023-05-16T10:37:28.240Z,13.71
2023-05-16T10:52:23.984Z,14.62
2023-05-16T11:07:21.086Z,13.74
2023-05-16T11:22:17.563Z,15.21
2023-05-16T11:37:14.053Z,15.07
2023-05-16T11:52:10.404Z,15.47
2023-05-16T12:07:06.630Z,15.21
2023-05-16T12:22:03.092Z,16.47
2023-05-16T12:37:00.003Z,16.37
2023-05-16T12:51:55.198Z,17.05
2023-05-16T13:21:47.330Z,16.76
2023-05-16T13:36:53.583Z,16.64
2023-05-16T13:51:39.693Z,16.04
2023-05-16T14:06:36.041Z,15.62
2023-05-16T14:21:31.717Z,15.39
2023-05-16T14:36:27.622Z,15.39
2023-05-16T14:51:23.980Z,15.5
2023-05-16T15:06:20.366Z,15.86
2023-05-16T15:21:17.296Z,16.07
2023-05-16T15:36:13.851Z,16.44
2023-05-16T15:51:10.248Z,16.14
2023-05-16T16:06:06.427Z,16.64
2023-05-16T16:21:03.422Z,16.44
2023-05-16T16:35:59.773Z,16.76
2023-05-16T16:50:56.332Z,16.18
2023-05-16T17:05:53.067Z,16.29
2023-05-16T17:20:48.602Z,14.22
2023-05-16T17:35:43.794Z,13.84
2023-05-16T17:50:39.748Z,13.88
2023-05-16T18:05:35.867Z,13.27
2023-05-16T18:35:30.761Z,12.92
2023-05-16T18:50:23.771Z,12.84
2023-05-16T19:05:19.727Z,12.87
2023-05-16T19:20:15.562Z,12.35
2023-05-16T19:35:12.042Z,12.46
2023-05-16T19:50:07.708Z,12.23
2023-05-16T20:05:03.811Z,12.07
2023-05-16T20:20:00.069Z,12.24
2023-05-16T20:34:56.222Z,12.14
2023-05-16T20:49:52.790Z,11.9
2023-05-16T21:04:49.262Z,12.01
2023-05-16T21:19:45.307Z,11.85
2023-05-16T21:34:41.685Z,11.41
2023-05-16T21:49:37.365Z,11.29
2023-05-16T22:04:33.368Z,11.1
2023-05-16T22:19:29.700Z,11.03
2023-05-16T22:34:26.226Z,11.18
2023-05-16T22:49:21.843Z,10.96
2023-05-16T23:04:18.134Z,11.18
2023-05-16T23:19:13.964Z,10.71
2023-05-16T23:34:10.106Z,10.63
2023-05-16T23:49:06.734Z,10.88
